Terminal Aerodrome Forecast
Issued by NWS Brownsville, TX

Home | Current Version | Previous Version | Text Only | Print | Product List | Glossary On
Versions: 1 2 3 4 5 6 7 8 9 10 11 12 13 14 15 16 17 18 19
081
FTUS44 KBRO 072320
TAFHRL
TAF
KHRL 072320Z 0800/0824 14013KT P6SM SKC
     FM080100 17008KT P6SM SCT250
     FM080600 19004KT P6SM SCT250
     FM081300 01011G24KT P6SM SKC
     FM081800 03021G27KT P6SM SKC
     FM082300 03013KT P6SM SKC=

USA.gov is the U.S. government's official web portal to all federal, state and local government web resources and services.